createdAt,value
2022-12-01T00:01:55.106Z,95799.81
2022-12-01T00:04:56.874Z,95793.84
2022-12-01T00:08:00.000Z,95791.19
2022-12-01T00:11:05.370Z,95789.44
2022-12-01T00:14:07.026Z,95796.34
2022-12-01T00:17:08.907Z,95793.84
2022-12-01T00:20:11.211Z,95795.56
2022-12-01T00:23:14.243Z,95797.28
2022-12-01T00:26:16.159Z,95787.69
2022-12-01T00:29:17.796Z,95790.72
2022-12-01T00:32:19.422Z,95779.09
2022-12-01T00:35:21.281Z,95772.81
2022-12-01T00:38:24.754Z,95777.47
2022-12-01T00:41:26.505Z,95770.09
2022-12-01T00:44:28.407Z,95776.38
2022-12-01T00:47:30.282Z,95779.22
2022-12-01T00:50:32.008Z,95782.38
2022-12-01T00:53:35.192Z,95784.72
2022-12-01T00:56:37.274Z,95774.31
2022-12-01T00:59:38.964Z,95778.41
2022-12-01T01:02:40.740Z,95780.75
2022-12-01T01:05:42.974Z,95775.59
2022-12-01T01:08:46.054Z,95785.13
2022-12-01T01:11:47.772Z,95782.16
2022-12-01T01:14:49.521Z,95788.59
2022-12-01T01:17:51.182Z,95780.59
2022-12-01T01:20:55.208Z,95781.28
2022-12-01T01:23:58.256Z,95783.59
2022-12-01T01:26:59.940Z,95781.53
2022-12-01T01:30:01.607Z,95779.66
2022-12-01T01:33:03.489Z,95774.66
2022-12-01T01:36:05.467Z,95765.88
2022-12-01T01:39:08.565Z,95776.97
2022-12-01T01:42:12.791Z,95778.69
2022-12-01T01:45:19.497Z,95777.31
2022-12-01T01:48:21.270Z,95774.44
2022-12-01T01:51:26.460Z,95782.78
2022-12-01T01:54:31.377Z,95779.03
2022-12-01T01:57:34.084Z,95778.38
2022-12-01T02:00:36.532Z,95778.56
2022-12-01T02:03:39.007Z,95773.41
2022-12-01T02:06:42.586Z,95780.16
2022-12-01T02:09:45.805Z,95774.53
2022-12-01T02:12:56.042Z,95772.63
2022-12-01T02:16:02.605Z,95777.94
2022-12-01T02:19:21.015Z,95770.09
2022-12-01T02:22:30.093Z,95771.66
2022-12-01T02:25:38.697Z,95769.19
2022-12-01T02:28:54.770Z,95766.03
2022-12-01T02:32:00.593Z,95765.72
2022-12-01T02:35:08.630Z,95758.31
2022-12-01T02:38:14.605Z,95760.38
2022-12-01T02:41:18.792Z,95759.16
2022-12-01T02:44:24.665Z,95754.59
2022-12-01T02:47:27.813Z,95754.16
2022-12-01T02:50:31.284Z,95754.78
2022-12-01T02:53:34.006Z,95751.47
2022-12-01T02:56:35.679Z,95748.19
2022-12-01T02:59:37.376Z,95746.00
2022-12-01T03:02:45.426Z,95740.53
2022-12-01T03:05:51.955Z,95746.03
2022-12-01T03:08:58.965Z,95747.41
2022-12-01T03:12:06.953Z,95742.00
2022-12-01T03:15:12.500Z,95746.25
2022-12-01T03:18:20.337Z,95736.53
2022-12-01T03:21:25.125Z,95750.00
2022-12-01T03:24:27.357Z,95744.03
2022-12-01T03:27:32.319Z,95740.16
2022-12-01T03:30:35.404Z,95746.09
2022-12-01T03:33:41.067Z,95739.50
2022-12-01T03:36:45.685Z,95734.00
2022-12-01T03:39:48.774Z,95738.38
2022-12-01T03:42:54.799Z,95733.81
2022-12-01T03:45:59.881Z,95738.84
2022-12-01T03:49:02.997Z,95734.41
2022-12-01T03:52:10.075Z,95740.38
2022-12-01T03:55:13.941Z,95735.34
2022-12-01T03:58:18.574Z,95732.97
2022-12-01T04:01:20.353Z,95741.78
2022-12-01T04:04:23.453Z,95745.69
2022-12-01T04:07:25.280Z,95738.63
2022-12-01T04:10:27.019Z,95744.94
2022-12-01T04:13:28.682Z,95730.00
2022-12-01T04:16:30.329Z,95732.53
2022-12-01T04:19:33.400Z,95730.84
2022-12-01T04:22:35.019Z,95729.75
2022-12-01T04:25:36.628Z,95727.22
2022-12-01T04:28:38.262Z,95730.22
2022-12-01T04:31:40.112Z,95727.72
2022-12-01T04:34:43.456Z,95726.03
2022-12-01T04:37:45.125Z,95731.53
2022-12-01T04:40:46.771Z,95731.84
2022-12-01T04:43:48.472Z,95733.38
2022-12-01T04:46:51.296Z,95733.53
2022-12-01T04:49:54.524Z,95737.16
2022-12-01T04:52:56.190Z,95740.19
2022-12-01T04:55:59.208Z,95745.03
2022-12-01T04:59:00.896Z,95745.97
2022-12-01T05:02:02.610Z,95744.22
2022-12-01T05:05:06.291Z,95742.81
2022-12-01T05:08:07.981Z,95746.44
2022-12-01T05:11:10.558Z,95744.69
2022-12-01T05:14:12.175Z,95744.81
2022-12-01T05:17:13.940Z,95742.16
2022-12-01T05:20:18.864Z,95747.63
2022-12-01T05:23:20.630Z,95744.97
2022-12-01T05:26:22.320Z,95748.28
2022-12-01T05:29:24.070Z,95743.91
2022-12-01T05:32:25.696Z,95739.03
2022-12-01T05:35:28.813Z,95740.16
2022-12-01T05:38:30.497Z,95740.91
2022-12-01T05:41:32.170Z,95729.16
2022-12-01T05:44:33.855Z,95737.28
2022-12-01T05:47:35.641Z,95730.13
2022-12-01T05:50:39.888Z,95733.53
2022-12-01T05:53:41.619Z,95740.59
2022-12-01T05:56:43.285Z,95740.78
2022-12-01T05:59:44.971Z,95737.97
2022-12-01T06:02:46.626Z,95735.16
2022-12-01T06:05:49.716Z,95736.88
2022-12-01T06:08:51.428Z,95746.13
2022-12-01T06:11:53.027Z,95747.66
2022-12-01T06:14:54.750Z,95750.34
2022-12-01T06:17:58.756Z,95749.72
2022-12-01T06:21:02.325Z,95757.09
2022-12-01T06:24:04.080Z,95753.66
2022-12-01T06:27:05.743Z,95761.50
2022-12-01T06:30:08.078Z,95766.81
2022-12-01T06:33:09.848Z,95756.97
2022-12-01T06:36:12.878Z,95760.25
2022-12-01T06:39:15.430Z,95771.03
2022-12-01T06:42:17.071Z,95774.19
2022-12-01T06:45:18.726Z,95777.31
2022-12-01T06:48:20.462Z,95772.28
2022-12-01T06:51:23.535Z,95784.38
2022-12-01T06:54:25.184Z,95788.88
2022-12-01T06:57:26.828Z,95790.72
2022-12-01T07:00:28.786Z,95792.78
2022-12-01T07:03:30.481Z,95797.66
2022-12-01T07:06:33.668Z,95794.97
2022-12-01T07:09:35.544Z,95802.50
2022-12-01T07:12:37.357Z,95797.50
2022-12-01T07:15:39.118Z,95798.56
2022-12-01T07:18:40.989Z,95801.09
2022-12-01T07:21:43.985Z,95801.88
2022-12-01T07:24:45.622Z,95808.44
2022-12-01T07:27:47.268Z,95801.41
2022-12-01T07:30:48.970Z,95808.28
2022-12-01T07:33:51.500Z,95821.59
2022-12-01T07:36:54.538Z,95824.44
2022-12-01T07:39:56.205Z,95827.75
2022-12-01T07:42:57.832Z,95831.19
2022-12-01T07:46:03.726Z,95824.75
2022-12-01T07:49:06.166Z,95827.25
2022-12-01T07:52:09.257Z,95819.56
2022-12-01T07:55:10.947Z,95824.88
2022-12-01T07:58:12.581Z,95823.81
2022-12-01T08:01:15.420Z,95826.47
2022-12-01T08:04:17.117Z,95825.84
2022-12-01T08:07:20.506Z,95828.84
2022-12-01T08:10:22.183Z,95827.91
2022-12-01T08:13:23.802Z,95823.38
2022-12-01T08:16:25.917Z,95828.19
2022-12-01T08:19:27.639Z,95830.09
2022-12-01T08:22:31.278Z,95828.81
2022-12-01T08:25:32.898Z,95828.03
2022-12-01T08:28:35.502Z,95826.75
2022-12-01T08:31:37.352Z,95829.75
2022-12-01T08:34:39.367Z,95832.69
2022-12-01T08:37:42.451Z,95831.88
2022-12-01T08:40:44.144Z,95820.59
2022-12-01T08:44:01.708Z,95824.53
2022-12-01T08:47:03.744Z,95829.34
2022-12-01T08:50:06.056Z,95825.03
2022-12-01T08:53:09.142Z,95837.06
2022-12-01T08:56:12.017Z,95837.53
2022-12-01T08:59:14.088Z,95829.25
2022-12-01T09:02:16.100Z,95831.09
2022-12-01T09:05:17.940Z,95834.41
2022-12-01T09:08:20.937Z,95837.28
2022-12-01T09:11:22.646Z,95840.56
2022-12-01T09:14:24.320Z,95841.91
2022-12-01T09:17:25.986Z,95847.09
2022-12-01T09:20:27.764Z,95845.06
2022-12-01T09:23:30.918Z,95842.25
2022-12-01T09:26:32.916Z,95841.66
2022-12-01T09:29:34.736Z,95836.13
2022-12-01T09:32:36.361Z,95828.66
2022-12-01T09:35:38.009Z,95827.28
2022-12-01T09:38:41.067Z,95827.75
2022-12-01T09:41:45.162Z,95830.44
2022-12-01T09:44:48.444Z,95832.16
2022-12-01T09:47:50.202Z,95824.91
2022-12-01T09:50:51.982Z,95828.84
2022-12-01T09:53:56.033Z,95820.84
2022-12-01T09:56:57.697Z,95815.19
2022-12-01T10:00:01.031Z,95820.19
2022-12-01T10:03:06.197Z,95811.38
2022-12-01T10:06:28.399Z,95814.66
2022-12-01T10:09:36.575Z,95813.88
2022-12-01T10:12:38.260Z,95808.97
2022-12-01T10:15:43.143Z,95808.97
2022-12-01T10:18:53.029Z,95803.47
2022-12-01T10:22:03.935Z,95805.81
2022-12-01T10:25:17.808Z,95806.69
2022-12-01T10:28:37.103Z,95803.91
2022-12-01T10:31:44.700Z,95789.06
2022-12-01T10:34:46.951Z,95790.16
2022-12-01T10:37:51.831Z,95792.03
2022-12-01T10:40:56.745Z,95791.03
2022-12-01T10:43:59.778Z,95792.97
2022-12-01T10:47:02.404Z,95784.31
2022-12-01T10:50:04.374Z,95788.81
2022-12-01T10:53:06.046Z,95776.13
2022-12-01T10:56:12.753Z,95782.75
2022-12-01T10:59:22.370Z,95774.66
2022-12-01T11:02:25.804Z,95775.38
2022-12-01T11:05:28.943Z,95771.50
2022-12-01T11:08:33.965Z,95768.34
2022-12-01T11:11:37.975Z,95774.91
2022-12-01T11:14:43.115Z,95766.41
2022-12-01T11:17:45.040Z,95768.47
2022-12-01T11:20:46.722Z,95758.66
2022-12-01T11:23:49.321Z,95760.72
2022-12-01T11:26:52.527Z,95754.59
2022-12-01T11:29:56.060Z,95758.59
2022-12-01T11:32:59.011Z,95757.59
2022-12-01T11:36:00.713Z,95757.59
2022-12-01T11:39:02.757Z,95753.78
2022-12-01T11:42:14.051Z,95749.03
2022-12-01T11:45:23.632Z,95746.38
2022-12-01T11:48:26.455Z,95749.31
2022-12-01T11:51:29.834Z,95739.13
2022-12-01T11:54:31.925Z,95747.56
2022-12-01T11:57:35.434Z,95744.09
2022-12-01T12:00:43.263Z,95742.13
2022-12-01T12:03:49.440Z,95734.91
2022-12-01T12:06:57.059Z,95737.19
2022-12-01T12:10:03.757Z,95736.22
2022-12-01T12:13:32.275Z,95729.78
2022-12-01T12:16:43.659Z,95723.38
2022-12-01T12:20:07.819Z,95730.28
2022-12-01T12:23:29.188Z,95724.97
2022-12-01T12:26:33.674Z,95715.72
2022-12-01T12:29:47.796Z,95720.97
2022-12-01T12:33:07.417Z,95725.75
2022-12-01T12:36:15.178Z,95718.91
2022-12-01T12:39:26.158Z,95721.72
2022-12-01T12:42:34.326Z,95721.25
2022-12-01T12:45:46.374Z,95715.78
2022-12-01T12:49:19.104Z,95715.41
2022-12-01T12:52:24.642Z,95704.84
2022-12-01T12:55:28.259Z,95705.63
2022-12-01T12:58:33.828Z,95705.28
2022-12-01T13:01:38.543Z,95704.50
2022-12-01T13:04:44.508Z,95692.84
2022-12-01T13:07:50.264Z,95707.25
2022-12-01T13:10:54.325Z,95700.81
2022-12-01T13:13:58.452Z,95704.88
2022-12-01T13:17:05.162Z,95701.09
2022-12-01T13:20:13.545Z,95704.88
2022-12-01T13:23:17.992Z,95697.56
2022-12-01T13:26:21.252Z,95702.63
2022-12-01T13:29:24.697Z,95699.69
2022-12-01T13:32:31.997Z,95705.44
2022-12-01T13:35:36.637Z,95709.38
2022-12-01T13:38:38.749Z,95700.47
2022-12-01T13:41:42.989Z,95710.03
2022-12-01T13:44:46.214Z,95696.34
2022-12-01T13:47:50.046Z,95700.81
2022-12-01T13:50:57.394Z,95701.63
2022-12-01T13:54:02.878Z,95697.88
2022-12-01T13:57:06.082Z,95700.47
2022-12-01T14:00:22.628Z,95705.72
2022-12-01T14:03:32.476Z,95707.94
2022-12-01T14:06:39.003Z,95694.59
2022-12-01T14:09:41.714Z,95697.50
2022-12-01T14:12:44.788Z,95700.75
2022-12-01T14:15:52.953Z,95705.41
2022-12-01T14:18:55.746Z,95707.63
2022-12-01T14:22:00.324Z,95704.66
2022-12-01T14:25:02.913Z,95706.22
2022-12-01T14:28:12.200Z,95700.63
2022-12-01T14:31:14.609Z,95706.31
2022-12-01T14:34:19.223Z,95707.88
2022-12-01T14:37:26.243Z,95708.94
2022-12-01T14:40:29.775Z,95703.41
2022-12-01T14:43:31.581Z,95710.41
2022-12-01T14:46:38.764Z,95709.31
2022-12-01T14:49:43.083Z,95710.31
2022-12-01T14:52:47.077Z,95710.41
2022-12-01T14:55:52.185Z,95724.78
2022-12-01T14:58:55.252Z,95715.84
2022-12-01T15:02:02.797Z,95719.78
2022-12-01T15:05:09.693Z,95723.75
2022-12-01T15:08:40.861Z,95723.78
2022-12-01T15:11:49.970Z,95720.19
2022-12-01T15:14:51.968Z,95725.19
2022-12-01T15:17:54.526Z,95721.06
2022-12-01T15:20:58.889Z,95732.34
2022-12-01T15:24:04.408Z,95731.97
2022-12-01T15:27:21.385Z,95727.16
2022-12-01T15:30:23.186Z,95731.59
2022-12-01T15:33:28.980Z,95733.03
2022-12-01T15:36:32.604Z,95733.38
2022-12-01T15:39:37.053Z,95737.16
2022-12-01T15:42:38.998Z,95740.88
2022-12-01T15:45:51.327Z,95737.06
2022-12-01T15:49:05.666Z,95742.16
2022-12-01T15:52:09.157Z,95740.00
2022-12-01T15:55:25.757Z,95744.75
2022-12-01T15:58:28.714Z,95744.53
2022-12-01T16:01:31.430Z,95741.16
2022-12-01T16:04:33.591Z,95742.25
2022-12-01T16:08:04.878Z,95750.84
2022-12-01T16:11:12.719Z,95750.72
2022-12-01T16:14:21.648Z,95750.16
2022-12-01T16:17:24.639Z,95755.56
2022-12-01T16:20:31.222Z,95751.97
2022-12-01T16:23:33.102Z,95753.47
2022-12-01T16:26:36.301Z,95749.34
2022-12-01T16:29:45.562Z,95751.00
2022-12-01T16:32:47.898Z,95756.94
2022-12-01T16:35:49.960Z,95755.38
2022-12-01T16:38:52.117Z,95748.59
2022-12-01T16:41:58.825Z,95763.50
2022-12-01T16:45:01.087Z,95760.28
2022-12-01T16:48:09.101Z,95754.13
2022-12-01T16:51:14.630Z,95755.66
2022-12-01T16:54:16.447Z,95757.78
2022-12-01T16:57:20.171Z,95764.50
2022-12-01T17:00:22.401Z,95753.53
2022-12-01T17:03:24.939Z,95760.44
2022-12-01T17:06:26.628Z,95769.13
2022-12-01T17:09:28.340Z,95768.34
2022-12-01T17:12:32.446Z,95764.38
2022-12-01T17:15:34.587Z,95766.59
2022-12-01T17:18:37.716Z,95757.81
2022-12-01T17:21:39.866Z,95756.81
2022-12-01T17:24:42.136Z,95762.22
2022-12-01T17:27:45.777Z,95758.28
2022-12-01T17:30:49.225Z,95753.91
2022-12-01T17:33:51.716Z,95757.09
2022-12-01T17:36:53.936Z,95756.75
2022-12-01T17:39:56.207Z,95763.38
2022-12-01T17:42:59.424Z,95763.47
2022-12-01T17:46:03.206Z,95766.41
2022-12-01T17:49:05.666Z,95770.53
2022-12-01T17:52:07.581Z,95767.78
2022-12-01T17:55:09.810Z,95776.72
2022-12-01T17:58:13.318Z,95769.88
2022-12-01T18:01:16.272Z,95766.41
2022-12-01T18:04:18.206Z,95767.78
2022-12-01T18:07:20.478Z,95771.50
2022-12-01T18:10:23.094Z,95770.31
2022-12-01T18:13:26.414Z,95763.91
2022-12-01T18:16:30.551Z,95762.13
2022-12-01T18:19:33.271Z,95765.41
2022-12-01T18:22:35.640Z,95762.28
2022-12-01T18:25:38.334Z,95765.09
2022-12-01T18:28:42.273Z,95773.28
2022-12-01T18:31:44.781Z,95772.81
2022-12-01T18:34:47.048Z,95772.66
2022-12-01T18:37:49.257Z,95771.69
2022-12-01T18:40:51.420Z,95768.72
2022-12-01T18:43:55.088Z,95768.09
2022-12-01T18:46:57.213Z,95772.34
2022-12-01T18:49:59.636Z,95776.25
2022-12-01T18:53:02.043Z,95772.94
2022-12-01T18:56:07.925Z,95772.75
2022-12-01T18:59:12.444Z,95764.63
2022-12-01T19:02:14.842Z,95766.03
2022-12-01T19:05:17.735Z,95774.06
2022-12-01T19:08:20.251Z,95759.81
2022-12-01T19:11:22.832Z,95758.41
2022-12-01T19:14:27.467Z,95753.75
2022-12-01T19:17:30.853Z,95755.63
2022-12-01T19:20:33.288Z,95758.13
2022-12-01T19:23:35.757Z,95762.66
2022-12-01T19:26:38.543Z,95756.69
2022-12-01T19:29:42.149Z,95759.34
2022-12-01T19:32:44.376Z,95755.25
2022-12-01T19:35:46.911Z,95761.75
2022-12-01T19:38:49.675Z,95758.44
2022-12-01T19:41:51.725Z,95759.72
2022-12-01T19:44:57.387Z,95755.94
2022-12-01T19:47:59.689Z,95756.34
2022-12-01T19:51:03.553Z,95755.38
2022-12-01T19:54:06.857Z,95748.00
2022-12-01T19:57:09.866Z,95750.53
2022-12-01T20:00:14.074Z,95751.44
2022-12-01T20:03:16.632Z,95754.25
2022-12-01T20:06:19.916Z,95746.88
2022-12-01T20:09:22.062Z,95746.72
2022-12-01T20:12:24.628Z,95740.41
2022-12-01T20:15:28.931Z,95749.31
2022-12-01T20:18:31.445Z,95743.03
2022-12-01T20:21:34.627Z,95745.47
2022-12-01T20:24:38.283Z,95741.84
2022-12-01T20:27:40.861Z,95743.09
2022-12-01T20:30:44.502Z,95745.75
2022-12-01T20:33:53.410Z,95748.41
2022-12-01T20:36:56.332Z,95759.84
2022-12-01T20:39:59.022Z,95757.97
2022-12-01T20:43:01.307Z,95754.63
2022-12-01T20:46:08.124Z,95754.50
2022-12-01T20:49:10.525Z,95758.44
2022-12-01T20:52:13.065Z,95757.78
2022-12-01T20:55:15.188Z,95761.56
2022-12-01T20:58:17.521Z,95757.63
2022-12-01T21:01:21.214Z,95753.59
2022-12-01T21:04:23.211Z,95746.03
2022-12-01T21:07:26.372Z,95745.41
2022-12-01T21:10:28.139Z,95747.94
2022-12-01T21:13:30.764Z,95735.22
2022-12-01T21:16:34.082Z,95745.41
2022-12-01T21:19:42.320Z,95733.84
2022-12-01T21:22:44.974Z,95742.00
2022-12-01T21:25:48.492Z,95745.91
2022-12-01T21:28:50.238Z,95743.88
2022-12-01T21:31:55.103Z,95749.34
2022-12-01T21:35:00.789Z,95741.50
2022-12-01T21:38:07.060Z,95735.44
2022-12-01T21:41:13.762Z,95735.47
2022-12-01T21:44:16.336Z,95735.28
2022-12-01T21:47:20.304Z,95735.13
2022-12-01T21:50:22.997Z,95737.47
2022-12-01T21:53:26.990Z,95745.13
2022-12-01T21:56:29.176Z,95741.84
2022-12-01T21:59:30.825Z,95741.66
2022-12-01T22:02:39.129Z,95740.69
2022-12-01T22:05:41.626Z,95736.94
2022-12-01T22:08:45.038Z,95739.00
2022-12-01T22:11:49.367Z,95742.13
2022-12-01T22:14:51.283Z,95740.72
2022-12-01T22:17:54.528Z,95741.00
2022-12-01T22:20:56.378Z,95751.03
2022-12-01T22:24:00.975Z,95743.53
2022-12-01T22:27:09.039Z,95739.28
2022-12-01T22:30:13.911Z,95736.47
2022-12-01T22:33:19.553Z,95732.19
2022-12-01T22:36:22.444Z,95726.56
2022-12-01T22:39:26.871Z,95718.44
2022-12-01T22:42:30.251Z,95726.56
2022-12-01T22:45:31.894Z,95725.16
2022-12-01T22:48:36.074Z,95725.81
2022-12-01T22:51:41.064Z,95728.25
2022-12-01T22:54:43.363Z,95726.28
2022-12-01T22:57:45.616Z,95729.38
2022-12-01T23:00:47.425Z,95723.78
2022-12-01T23:03:50.603Z,95721.91
2022-12-01T23:07:00.112Z,95714.81
2022-12-01T23:10:12.600Z,95720.63
2022-12-01T23:13:15.276Z,95716.72
2022-12-01T23:16:17.218Z,95715.78
2022-12-01T23:19:20.426Z,95712.50
2022-12-01T23:22:21.978Z,95719.69
2022-12-01T23:25:24.036Z,95714.34
2022-12-01T23:28:25.638Z,95710.09
2022-12-01T23:31:28.331Z,95717.31
2022-12-01T23:34:31.322Z,95713.25
2022-12-01T23:37:33.912Z,95712.13
2022-12-01T23:40:36.199Z,95708.06
2022-12-01T23:43:38.791Z,95705.84
2022-12-01T23:46:41.127Z,95702.13
2022-12-01T23:49:44.188Z,95696.28
2022-12-01T23:52:46.099Z,95697.41
2022-12-01T23:55:47.733Z,95688.47
2022-12-01T23:58:49.447Z,95692.28
